Wednesday, November 14, 2018, 7:59 PM CST
Back to Local

KLOT, Chicago/romeoville, Lewis University Airport

Location: Lockport, IL, United States Lat: 41.608
Local Time: 7:59 PM CST ( 1:59 GMT) Lon: -88.094
Time Zone: US/Central Elev: 672 ft

Show me the last for .
Show Coded

Time T Td Feel RH Dir Speed Gust Alt SLP Vis Weather Sky Remarks
2018-11-14 19:35 28 24 23 82 110° 5 - 30.43 - 10 None
2018-11-14 19:15 28 23 24 83 90° 3 - 30.43 - 10 None
2018-11-14 18:55 28 23 22 82 80° 6 - 30.43 - 10 None
2018-11-14 18:35 28 23 22 80 80° 6 - 30.44 - 10 None
2018-11-14 18:15 29 23 22 79 80° 7 - 30.44 - 10 None
2018-11-14 17:55 29 23 22 75 80° 8 - 30.44 - 10 6-hr Min Temp (6pm): 29.1°F
6-hr Max Temp (6pm): 35.8°F
2018-11-14 17:35 31 22 24 70 90° 7 - 30.44 - 10 None
2018-11-14 17:15 31 20 25 63 80° 6 - 30.44 - 10 None
2018-11-14 16:55 30 20 27 65 80° 3 - 30.45 - 5 HZ None
2018-11-14 16:35 30 20 24 66 50° 6 - 30.46 - 10 None
2018-11-14 16:15 32 20 27 59 70° 6 - 30.46 - 10 None
2018-11-14 15:55 34 20 31 57 60° 3 - 30.46 - 10 None
2018-11-14 15:35 35 20 31 55 60° 5 - 30.46 - 10 None
2018-11-14 15:15 35 20 - 54 - Calm - 30.47 - 10 None
2018-11-14 14:55 36 21 - 54 - Calm - 30.48 - 10 None
2018-11-14 14:35 35 20 - 52 - Calm - 30.48 - 10 None
2018-11-14 14:15 35 20 32 52 160° 3 - 30.48 - 10 None
2018-11-14 13:55 35 19 32 53 130° 3 - 30.49 - 10 None
2018-11-14 13:35 34 20 30 54 110° 5 - 30.50 - 10 None
2018-11-14 13:15 34 20 31 54 50° 3 - 30.51 - 10 None
2018-11-14 12:55 34 20 31 56 120° 3 - 30.52 - 10 None
2018-11-14 12:35 33 19 28 56 100° 6 - 30.54 - 10 None
2018-11-14 12:15 33 19 27 55 110° 6 - 30.55 - 10 None
2018-11-14 11:55 32 19 27 57 60° 5 - 30.57 - 10 6-hr Min Temp (12pm): 16.5°F
6-hr Max Temp (12pm): 31.8°F
2018-11-14 11:35 31 18 28 56 100° 3 - 30.58 - 10 None
2018-11-14 11:15 31 17 27 56 90° 3 - 30.59 - 10 None
2018-11-14 10:55 29 16 - 56 - Calm - 30.59 - 10 None
2018-11-14 10:35 28 15 24 56 40° 3 - 30.60 - 10 None
2018-11-14 10:15 27 14 - 57 - Calm - 30.61 - 10 None
2018-11-14 09:55 26 14 - 58 - Calm - 30.60 - 10 None
2018-11-14 09:35 25 13 - 59 - Calm - 30.59 - 10 None
2018-11-14 09:15 24 12 20 59 360° 3 - 30.58 - 10 None
2018-11-14 08:55 23 11 17 60 20° 5 - 30.59 - 10 None
2018-11-14 08:35 22 12 16 64 350° 5 - 30.58 - 10 None
2018-11-14 08:15 21 12 17 66 350° 3 - 30.58 - 10 None
2018-11-14 07:55 21 11 - 67 - Calm - 30.58 - 10 None
2018-11-14 07:35 20 12 - 69 - Calm - 30.57 - 10 None
2018-11-14 07:15 19 11 - 70 - Calm - 30.57 - 10 None
2018-11-14 06:55 18 11 - 72 - Calm - 30.56 - 10 None
2018-11-14 06:35 18 11 - 72 - Calm - 30.56 - 10 None
2018-11-14 06:15 17 11 9 74 360° 6 - 30.55 - 10 None
2018-11-14 05:55 18 11 12 75 30° 3 - 30.55 - 10 6-hr Min Temp (6am): 16.5°F
6-hr Max Temp (6am): 18.5°F
2018-11-14 05:35 17 11 - 79 - Calm - 30.54 - 10 None
2018-11-14 05:15 17 11 8 80 30° 6 - 30.53 - 10 CLR None
2018-11-14 04:55 17 11 9 77 20° 6 - 30.53 - 10 CLR None
2018-11-14 04:35 17 11 9 77 360° 6 - 30.53 - 10 CLR None
2018-11-14 04:15 17 11 - 77 - Calm - 30.53 - 10 CLR None
2018-11-14 03:55 17 11 9 78 350° 5 - 30.52 - 10 CLR None
2018-11-14 03:35 17 11 11 78 360° 3 - 30.52 - 10 CLR None
2018-11-14 03:15 17 11 10 77 350° 5 - 30.52 - 10 CLR None
2018-11-14 02:55 18 12 8 78 350° 7 - 30.51 - 10 CLR None
2018-11-14 02:35 18 12 10 78 350° 6 - 30.52 - 10 CLR None
2018-11-14 02:15 18 12 7 79 340° 8 - 30.52 - 10 CLR None
2018-11-14 01:55 17 12 10 78 320° 5 - 30.52 - 10 CLR None
2018-11-14 01:35 18 13 10 78 330° 6 - 30.52 - 10 CLR None
2018-11-14 01:15 18 12 9 77 320° 6 - 30.52 - 10 CLR None
2018-11-14 00:55 17 12 12 79 290° 3 - 30.51 - 10 CLR None
2018-11-14 00:35 18 13 11 80 300° 5 - 30.52 - 10 CLR None
2018-11-14 00:15 18 13 13 82 280° 3 - 30.52 - 10 None
2018-11-13 23:55 18 13 11 80 270° 5 - 30.52 - 10 6-hr Min Temp (12am): 16.9°F
6-hr Max Temp (12am): 23.4°F
24-hr Min Temp (12am): 16.9°F
24-hr Max Temp (12am): 28.4°F
2018-11-13 23:35 19 13 10 80 280° 6 - 30.51 - 10 None
2018-11-13 23:15 18 14 11 81 280° 5 - 30.51 - 10 CLR None
2018-11-13 22:55 17 12 10 82 280° 5 - 30.51 - 10 CLR None
2018-11-13 22:35 18 13 11 80 260° 5 - 30.51 - 10 CLR None
2018-11-13 22:15 19 14 13 79 270° 5 - 30.50 - 10 CLR None
2018-11-13 21:55 20 14 13 76 270° 5 - 30.50 - 10 CLR None
2018-11-13 21:35 20 14 15 76 280° 3 - 30.50 - 10 CLR None
2018-11-13 21:15 20 14 15 77 260° 3 - 30.49 - 10 CLR None
2018-11-13 20:55 20 15 16 77 250° 3 - 30.49 - 10 CLR None
2018-11-13 20:35 21 14 16 75 260° 3 - 30.48 - 10 None
2018-11-13 20:15 21 14 14 74 270° 5 - 30.48 - 10 None

Support USWX by starting your Amazon purchase here.